Dexter, ME

12:06 AM EDT on July 03, 2015 (GMT -0400)
Halfcrazy's Weather station | | Change Station
CLOSE
Current Station
Personal Weather Station
Location: Corinna, ME
Elevation: 584 ft
Nearby Weather Stations

Elev 584 ft 44.92 °N, 69.22 °W | Updated 12 minutes ago

Clear
Clear
56.8 °F
Feels Like 56.8 °F
N
3.2
Wind Variable Wind from West

Today
High -- | Low -- °F
--% Chance of Precip.
Yesterday
High -- | Low -- °F
Precip. -- in
4:55 AM 8:27 PM
Full, 98% visible
Pressure 29.87 in
Visibility 10.0 miles
Clouds Scattered Clouds 25000 ft
Dew Point 50 °F
Humidity 79%
Rainfall in
Snow Depth Not available.
UV 0 out of 12
Pollen 4.50 out of 12
Air Quality Not available.
Flu Activity Not available.
METAR KBGR 030353Z 30003KT 10SM SCT250 13/09 A2988 RMK AO2 SLP114 T01330094

More Conditions Fewer Conditions

Pressure 29.87 in
Visibility 10.0 miles
Clouds Scattered Clouds 25000 ft
Dew Point 50 °F
Humidity 79%
Rainfall in
Snow Depth Not available.
UV 0 out of 12
Pollen 4.50 out of 12
Air Quality Not available.
Flu Activity Not available.
METAR KBGR 030353Z 30003KT 10SM SCT250 13/09 A2988 RMK AO2 SLP114 T01330094

More Conditions Fewer Conditions

10-Day Weather Forecast

×

Almanac

Astronomy

Jul. 03, 2015 Rise Set
Actual Time
Civil Twilight
Nautical Twilight
Astronomical Twilight
Moon
Length of Visible Light
Length of Day
Tomorrow will be .
, % of the Moon is Illuminated

Today's Extremes

State Highs State Lows

Community

WunderPhotos

Upload Photos

1,834,619 photos uploaded!

WunderBlogs® & News

Nearby

Air Quality

  Air Quality AQ Index Pollutant
Not available.

Snow Depth

Station Depth Elevation

Earthquake Activity

City Distance Mag. Time & Date
Minimum magnitude displayed is 2.5.

Coastal Water Temperatures

Place Temperature

Stations

Nearby Weather Stations

Station Location Temp. Windchill Dew Point Humidity Wind Precip. Elev Updated Type